sensor_id;sensor_type;location;lat;lon;timestamp;P1;durP1;ratioP1;P2;durP2;ratioP2
16272;SDS011;8244;50.044;9.006;2022-12-18T00:03:46;45.73;;;18.43;;
16272;SDS011;8244;50.044;9.006;2022-12-18T00:08:50;42.77;;;18.37;;
16272;SDS011;8244;50.044;9.006;2022-12-18T00:13:52;43.13;;;17.80;;
16272;SDS011;8244;50.044;9.006;2022-12-18T00:18:56;37.17;;;15.80;;
16272;SDS011;8244;50.044;9.006;2022-12-18T00:24:01;39.47;;;17.13;;
16272;SDS011;8244;50.044;9.006;2022-12-18T00:29:03;40.60;;;16.83;;
16272;SDS011;8244;50.044;9.006;2022-12-18T00:34:08;77.17;;;17.90;;
16272;SDS011;8244;50.044;9.006;2022-12-18T00:39:12;42.63;;;16.33;;
16272;SDS011;8244;50.044;9.006;2022-12-18T00:44:14;47.70;;;16.63;;
16272;SDS011;8244;50.044;9.006;2022-12-18T00:49:18;46.37;;;16.83;;
16272;SDS011;8244;50.044;9.006;2022-12-18T00:54:22;47.40;;;17.37;;
16272;SDS011;8244;50.044;9.006;2022-12-18T00:59:24;65.73;;;18.83;;
16272;SDS011;8244;50.044;9.006;2022-12-18T01:04:25;43.20;;;16.83;;
16272;SDS011;8244;50.044;9.006;2022-12-18T01:09:28;40.60;;;16.10;;
16272;SDS011;8244;50.044;9.006;2022-12-18T01:14:30;43.90;;;15.33;;
16272;SDS011;8244;50.044;9.006;2022-12-18T01:19:32;40.30;;;16.60;;
16272;SDS011;8244;50.044;9.006;2022-12-18T01:24:35;47.97;;;18.20;;
16272;SDS011;8244;50.044;9.006;2022-12-18T01:29:37;44.37;;;16.83;;
16272;SDS011;8244;50.044;9.006;2022-12-18T01:34:38;44.23;;;17.90;;
16272;SDS011;8244;50.044;9.006;2022-12-18T01:39:41;41.53;;;17.00;;
16272;SDS011;8244;50.044;9.006;2022-12-18T01:44:54;40.60;;;16.97;;
16272;SDS011;8244;50.044;9.006;2022-12-18T01:49:58;39.53;;;16.87;;
16272;SDS011;8244;50.044;9.006;2022-12-18T01:55:04;39.93;;;15.93;;
16272;SDS011;8244;50.044;9.006;2022-12-18T02:00:08;33.03;;;14.57;;
16272;SDS011;8244;50.044;9.006;2022-12-18T02:05:12;38.87;;;16.53;;
16272;SDS011;8244;50.044;9.006;2022-12-18T02:10:20;45.03;;;17.57;;
16272;SDS011;8244;50.044;9.006;2022-12-18T02:15:26;38.07;;;16.73;;
16272;SDS011;8244;50.044;9.006;2022-12-18T02:20:36;43.60;;;16.03;;
16272;SDS011;8244;50.044;9.006;2022-12-18T02:25:52;43.70;;;16.00;;
16272;SDS011;8244;50.044;9.006;2022-12-18T02:31:04;43.07;;;17.13;;
16272;SDS011;8244;50.044;9.006;2022-12-18T02:36:10;42.97;;;16.40;;
16272;SDS011;8244;50.044;9.006;2022-12-18T02:41:16;51.77;;;18.20;;
16272;SDS011;8244;50.044;9.006;2022-12-18T02:46:25;39.17;;;16.00;;
16272;SDS011;8244;50.044;9.006;2022-12-18T02:51:33;50.70;;;18.47;;
16272;SDS011;8244;50.044;9.006;2022-12-18T02:56:43;48.20;;;16.83;;
16272;SDS011;8244;50.044;9.006;2022-12-18T03:01:50;59.23;;;18.83;;
16272;SDS011;8244;50.044;9.006;2022-12-18T03:06:56;65.07;;;15.83;;
16272;SDS011;8244;50.044;9.006;2022-12-18T03:12:02;49.30;;;17.93;;
16272;SDS011;8244;50.044;9.006;2022-12-18T03:17:24;58.13;;;20.37;;
16272;SDS011;8244;50.044;9.006;2022-12-18T03:22:29;52.87;;;19.13;;
16272;SDS011;8244;50.044;9.006;2022-12-18T03:27:34;45.97;;;17.93;;
16272;SDS011;8244;50.044;9.006;2022-12-18T03:32:41;44.17;;;17.03;;
16272;SDS011;8244;50.044;9.006;2022-12-18T03:37:48;44.27;;;18.13;;
16272;SDS011;8244;50.044;9.006;2022-12-18T03:42:55;53.83;;;19.10;;
16272;SDS011;8244;50.044;9.006;2022-12-18T03:48:03;43.53;;;17.93;;
16272;SDS011;8244;50.044;9.006;2022-12-18T03:53:13;43.23;;;17.73;;
16272;SDS011;8244;50.044;9.006;2022-12-18T03:58:26;40.80;;;17.07;;
16272;SDS011;8244;50.044;9.006;2022-12-18T04:03:30;42.87;;;15.83;;
16272;SDS011;8244;50.044;9.006;2022-12-18T04:08:33;43.87;;;17.60;;
16272;SDS011;8244;50.044;9.006;2022-12-18T04:13:37;39.00;;;15.20;;
16272;SDS011;8244;50.044;9.006;2022-12-18T04:18:39;47.63;;;17.37;;
16272;SDS011;8244;50.044;9.006;2022-12-18T04:23:40;42.20;;;16.27;;
16272;SDS011;8244;50.044;9.006;2022-12-18T04:28:43;44.20;;;18.23;;
16272;SDS011;8244;50.044;9.006;2022-12-18T04:33:45;40.37;;;16.67;;
16272;SDS011;8244;50.044;9.006;2022-12-18T04:38:47;42.60;;;15.80;;
16272;SDS011;8244;50.044;9.006;2022-12-18T04:43:50;39.00;;;16.23;;
16272;SDS011;8244;50.044;9.006;2022-12-18T04:48:51;41.53;;;15.80;;
16272;SDS011;8244;50.044;9.006;2022-12-18T04:53:53;38.27;;;15.80;;
16272;SDS011;8244;50.044;9.006;2022-12-18T04:58:56;40.37;;;15.77;;
16272;SDS011;8244;50.044;9.006;2022-12-18T05:03:58;38.17;;;15.90;;
16272;SDS011;8244;50.044;9.006;2022-12-18T05:08:59;39.67;;;15.47;;
16272;SDS011;8244;50.044;9.006;2022-12-18T05:14:02;35.20;;;14.07;;
16272;SDS011;8244;50.044;9.006;2022-12-18T05:19:04;42.87;;;16.27;;
16272;SDS011;8244;50.044;9.006;2022-12-18T05:24:06;38.20;;;14.93;;
16272;SDS011;8244;50.044;9.006;2022-12-18T05:29:09;43.57;;;14.80;;
16272;SDS011;8244;50.044;9.006;2022-12-18T05:34:12;34.80;;;14.07;;
16272;SDS011;8244;50.044;9.006;2022-12-18T05:39:14;32.10;;;13.73;;
16272;SDS011;8244;50.044;9.006;2022-12-18T05:44:16;34.87;;;13.03;;
16272;SDS011;8244;50.044;9.006;2022-12-18T05:49:18;37.43;;;15.07;;
16272;SDS011;8244;50.044;9.006;2022-12-18T05:54:20;39.50;;;14.43;;
16272;SDS011;8244;50.044;9.006;2022-12-18T05:59:23;44.13;;;15.00;;
16272;SDS011;8244;50.044;9.006;2022-12-18T06:04:26;36.37;;;14.67;;
16272;SDS011;8244;50.044;9.006;2022-12-18T06:09:28;33.27;;;13.67;;
16272;SDS011;8244;50.044;9.006;2022-12-18T06:14:31;41.70;;;15.00;;
16272;SDS011;8244;50.044;9.006;2022-12-18T06:19:33;41.67;;;15.13;;
16272;SDS011;8244;50.044;9.006;2022-12-18T06:24:35;35.20;;;14.23;;
16272;SDS011;8244;50.044;9.006;2022-12-18T06:29:37;37.00;;;13.93;;
16272;SDS011;8244;50.044;9.006;2022-12-18T06:34:39;43.23;;;14.83;;
16272;SDS011;8244;50.044;9.006;2022-12-18T06:39:41;37.83;;;14.77;;
16272;SDS011;8244;50.044;9.006;2022-12-18T06:44:44;37.23;;;14.67;;
16272;SDS011;8244;50.044;9.006;2022-12-18T06:49:45;36.27;;;14.23;;
16272;SDS011;8244;50.044;9.006;2022-12-18T06:54:47;34.00;;;13.73;;
16272;SDS011;8244;50.044;9.006;2022-12-18T06:59:50;37.23;;;14.17;;
16272;SDS011;8244;50.044;9.006;2022-12-18T07:04:52;37.67;;;15.00;;
16272;SDS011;8244;50.044;9.006;2022-12-18T07:09:53;35.63;;;14.07;;
16272;SDS011;8244;50.044;9.006;2022-12-18T07:14:56;38.03;;;14.90;;
16272;SDS011;8244;50.044;9.006;2022-12-18T07:19:58;34.30;;;14.43;;
16272;SDS011;8244;50.044;9.006;2022-12-18T07:24:59;35.87;;;14.40;;
16272;SDS011;8244;50.044;9.006;2022-12-18T07:30:03;41.37;;;17.27;;
16272;SDS011;8244;50.044;9.006;2022-12-18T07:35:05;57.70;;;21.90;;
16272;SDS011;8244;50.044;9.006;2022-12-18T07:40:08;65.13;;;24.53;;
16272;SDS011;8244;50.044;9.006;2022-12-18T07:45:11;49.07;;;19.90;;
16272;SDS011;8244;50.044;9.006;2022-12-18T07:50:13;41.90;;;17.63;;
16272;SDS011;8244;50.044;9.006;2022-12-18T07:55:15;44.97;;;19.43;;
16272;SDS011;8244;50.044;9.006;2022-12-18T08:00:18;52.73;;;20.13;;
16272;SDS011;8244;50.044;9.006;2022-12-18T08:05:20;44.63;;;18.03;;
16272;SDS011;8244;50.044;9.006;2022-12-18T08:10:22;52.87;;;20.23;;
16272;SDS011;8244;50.044;9.006;2022-12-18T08:15:25;38.60;;;18.07;;
16272;SDS011;8244;50.044;9.006;2022-12-18T08:20:26;45.30;;;18.80;;
16272;SDS011;8244;50.044;9.006;2022-12-18T08:25:28;45.03;;;18.27;;
16272;SDS011;8244;50.044;9.006;2022-12-18T08:30:31;44.97;;;19.47;;
16272;SDS011;8244;50.044;9.006;2022-12-18T08:35:34;41.97;;;19.67;;
16272;SDS011;8244;50.044;9.006;2022-12-18T08:40:37;45.23;;;21.17;;
16272;SDS011;8244;50.044;9.006;2022-12-18T08:45:40;44.37;;;19.13;;
16272;SDS011;8244;50.044;9.006;2022-12-18T08:50:42;49.10;;;19.67;;
16272;SDS011;8244;50.044;9.006;2022-12-18T08:55:43;44.10;;;18.57;;
16272;SDS011;8244;50.044;9.006;2022-12-18T09:00:46;48.20;;;19.77;;
16272;SDS011;8244;50.044;9.006;2022-12-18T09:05:48;46.93;;;20.47;;
16272;SDS011;8244;50.044;9.006;2022-12-18T09:10:50;59.00;;;26.20;;
16272;SDS011;8244;50.044;9.006;2022-12-18T09:15:53;49.23;;;22.20;;
16272;SDS011;8244;50.044;9.006;2022-12-18T09:20:56;50.57;;;21.70;;
16272;SDS011;8244;50.044;9.006;2022-12-18T09:25:58;50.33;;;21.73;;
16272;SDS011;8244;50.044;9.006;2022-12-18T09:31:04;46.83;;;21.23;;
16272;SDS011;8244;50.044;9.006;2022-12-18T09:36:08;54.93;;;22.50;;
16272;SDS011;8244;50.044;9.006;2022-12-18T09:46:46;53.53;;;21.73;;
16272;SDS011;8244;50.044;9.006;2022-12-18T09:51:52;50.50;;;22.13;;
16272;SDS011;8244;50.044;9.006;2022-12-18T09:56:57;57.50;;;22.53;;
16272;SDS011;8244;50.044;9.006;2022-12-18T10:02:00;57.50;;;21.93;;
16272;SDS011;8244;50.044;9.006;2022-12-18T10:07:13;52.40;;;22.17;;
16272;SDS011;8244;50.044;9.006;2022-12-18T10:12:21;52.70;;;21.37;;
16272;SDS011;8244;50.044;9.006;2022-12-18T10:17:32;51.63;;;20.53;;
16272;SDS011;8244;50.044;9.006;2022-12-18T10:22:40;50.77;;;21.90;;
16272;SDS011;8244;50.044;9.006;2022-12-18T10:27:48;53.57;;;20.63;;
16272;SDS011;8244;50.044;9.006;2022-12-18T10:32:58;52.93;;;21.50;;
16272;SDS011;8244;50.044;9.006;2022-12-18T10:38:03;48.57;;;21.07;;
16272;SDS011;8244;50.044;9.006;2022-12-18T10:43:10;54.50;;;21.87;;
16272;SDS011;8244;50.044;9.006;2022-12-18T10:48:19;49.10;;;21.60;;
16272;SDS011;8244;50.044;9.006;2022-12-18T10:53:23;45.83;;;20.97;;
16272;SDS011;8244;50.044;9.006;2022-12-18T10:58:27;52.53;;;20.63;;
16272;SDS011;8244;50.044;9.006;2022-12-18T11:03:33;44.27;;;18.83;;
16272;SDS011;8244;50.044;9.006;2022-12-18T11:08:36;42.43;;;19.60;;
16272;SDS011;8244;50.044;9.006;2022-12-18T11:13:38;41.73;;;20.03;;
16272;SDS011;8244;50.044;9.006;2022-12-18T11:18:42;45.17;;;19.40;;
16272;SDS011;8244;50.044;9.006;2022-12-18T11:23:46;43.20;;;19.03;;
16272;SDS011;8244;50.044;9.006;2022-12-18T11:28:50;44.53;;;19.07;;
16272;SDS011;8244;50.044;9.006;2022-12-18T11:34:10;40.40;;;18.37;;
16272;SDS011;8244;50.044;9.006;2022-12-18T11:39:18;41.83;;;19.60;;
16272;SDS011;8244;50.044;9.006;2022-12-18T11:44:35;60.93;;;25.80;;
16272;SDS011;8244;50.044;9.006;2022-12-18T11:49:41;49.63;;;21.80;;
16272;SDS011;8244;50.044;9.006;2022-12-18T11:54:43;43.93;;;19.47;;
16272;SDS011;8244;50.044;9.006;2022-12-18T11:59:47;44.67;;;19.37;;
16272;SDS011;8244;50.044;9.006;2022-12-18T12:05:02;43.23;;;19.03;;
16272;SDS011;8244;50.044;9.006;2022-12-18T12:10:23;43.23;;;18.57;;
16272;SDS011;8244;50.044;9.006;2022-12-18T12:15:34;41.90;;;19.00;;
16272;SDS011;8244;50.044;9.006;2022-12-18T12:20:49;41.00;;;18.90;;
16272;SDS011;8244;50.044;9.006;2022-12-18T12:25:59;44.10;;;20.87;;
16272;SDS011;8244;50.044;9.006;2022-12-18T12:31:06;40.27;;;18.90;;
16272;SDS011;8244;50.044;9.006;2022-12-18T12:36:21;40.83;;;19.23;;
16272;SDS011;8244;50.044;9.006;2022-12-18T12:41:32;42.73;;;18.97;;
16272;SDS011;8244;50.044;9.006;2022-12-18T12:46:55;41.50;;;19.27;;
16272;SDS011;8244;50.044;9.006;2022-12-18T12:52:03;43.17;;;20.67;;
16272;SDS011;8244;50.044;9.006;2022-12-18T12:57:08;42.07;;;19.67;;
16272;SDS011;8244;50.044;9.006;2022-12-18T13:02:14;42.30;;;20.07;;
16272;SDS011;8244;50.044;9.006;2022-12-18T13:07:23;44.13;;;20.83;;
16272;SDS011;8244;50.044;9.006;2022-12-18T13:12:30;41.47;;;19.83;;
16272;SDS011;8244;50.044;9.006;2022-12-18T13:17:55;47.00;;;21.67;;
16272;SDS011;8244;50.044;9.006;2022-12-18T13:23:23;38.93;;;19.90;;
16272;SDS011;8244;50.044;9.006;2022-12-18T13:28:49;44.83;;;21.23;;
16272;SDS011;8244;50.044;9.006;2022-12-18T13:33:55;41.37;;;19.63;;
16272;SDS011;8244;50.044;9.006;2022-12-18T13:39:24;38.87;;;19.07;;
16272;SDS011;8244;50.044;9.006;2022-12-18T13:44:34;45.23;;;19.67;;
16272;SDS011;8244;50.044;9.006;2022-12-18T13:49:39;40.90;;;18.67;;
16272;SDS011;8244;50.044;9.006;2022-12-18T13:54:45;42.90;;;19.13;;
16272;SDS011;8244;50.044;9.006;2022-12-18T13:59:51;46.40;;;20.77;;
16272;SDS011;8244;50.044;9.006;2022-12-18T14:04:53;46.17;;;19.97;;
16272;SDS011;8244;50.044;9.006;2022-12-18T14:09:57;41.97;;;19.17;;
16272;SDS011;8244;50.044;9.006;2022-12-18T14:15:00;44.57;;;21.27;;
16272;SDS011;8244;50.044;9.006;2022-12-18T14:20:03;42.33;;;19.63;;
16272;SDS011;8244;50.044;9.006;2022-12-18T14:25:16;44.20;;;20.17;;
16272;SDS011;8244;50.044;9.006;2022-12-18T14:30:26;44.10;;;20.90;;
16272;SDS011;8244;50.044;9.006;2022-12-18T14:35:29;44.53;;;20.93;;
16272;SDS011;8244;50.044;9.006;2022-12-18T14:40:32;41.83;;;19.20;;
16272;SDS011;8244;50.044;9.006;2022-12-18T14:45:35;43.20;;;19.40;;
16272;SDS011;8244;50.044;9.006;2022-12-18T14:50:37;43.03;;;19.90;;
16272;SDS011;8244;50.044;9.006;2022-12-18T14:55:43;43.07;;;20.33;;
16272;SDS011;8244;50.044;9.006;2022-12-18T15:00:49;43.67;;;20.40;;
16272;SDS011;8244;50.044;9.006;2022-12-18T15:05:51;40.17;;;19.00;;
16272;SDS011;8244;50.044;9.006;2022-12-18T15:10:54;42.30;;;20.17;;
16272;SDS011;8244;50.044;9.006;2022-12-18T15:15:57;42.50;;;19.70;;
16272;SDS011;8244;50.044;9.006;2022-12-18T15:21:07;43.43;;;19.23;;
16272;SDS011;8244;50.044;9.006;2022-12-18T15:26:12;40.37;;;18.70;;
16272;SDS011;8244;50.044;9.006;2022-12-18T15:31:28;44.27;;;18.90;;
16272;SDS011;8244;50.044;9.006;2022-12-18T15:36:31;45.27;;;20.33;;
16272;SDS011;8244;50.044;9.006;2022-12-18T15:41:37;45.50;;;20.73;;
16272;SDS011;8244;50.044;9.006;2022-12-18T15:46:39;42.43;;;19.97;;
16272;SDS011;8244;50.044;9.006;2022-12-18T15:51:40;46.30;;;21.93;;
16272;SDS011;8244;50.044;9.006;2022-12-18T15:56:44;45.67;;;21.47;;
16272;SDS011;8244;50.044;9.006;2022-12-18T16:02:07;41.40;;;19.00;;
16272;SDS011;8244;50.044;9.006;2022-12-18T16:07:16;43.93;;;20.00;;
16272;SDS011;8244;50.044;9.006;2022-12-18T16:12:20;46.53;;;21.93;;
16272;SDS011;8244;50.044;9.006;2022-12-18T16:17:25;44.83;;;20.57;;
16272;SDS011;8244;50.044;9.006;2022-12-18T16:22:27;41.70;;;19.93;;
16272;SDS011;8244;50.044;9.006;2022-12-18T16:27:31;43.33;;;19.43;;
16272;SDS011;8244;50.044;9.006;2022-12-18T16:32:33;46.50;;;21.77;;
16272;SDS011;8244;50.044;9.006;2022-12-18T16:37:34;44.30;;;20.73;;
16272;SDS011;8244;50.044;9.006;2022-12-18T16:42:38;44.20;;;21.07;;
16272;SDS011;8244;50.044;9.006;2022-12-18T16:47:41;56.80;;;23.10;;
16272;SDS011;8244;50.044;9.006;2022-12-18T16:52:42;55.77;;;24.63;;
16272;SDS011;8244;50.044;9.006;2022-12-18T16:57:45;45.57;;;21.03;;
16272;SDS011;8244;50.044;9.006;2022-12-18T17:02:47;50.43;;;21.73;;
16272;SDS011;8244;50.044;9.006;2022-12-18T17:07:49;46.80;;;22.17;;
16272;SDS011;8244;50.044;9.006;2022-12-18T17:12:51;43.87;;;21.10;;
16272;SDS011;8244;50.044;9.006;2022-12-18T17:17:53;43.97;;;20.83;;
16272;SDS011;8244;50.044;9.006;2022-12-18T17:22:55;47.67;;;21.63;;
16272;SDS011;8244;50.044;9.006;2022-12-18T17:28:00;47.77;;;21.07;;
16272;SDS011;8244;50.044;9.006;2022-12-18T17:33:02;44.73;;;20.53;;
16272;SDS011;8244;50.044;9.006;2022-12-18T17:38:04;45.07;;;20.53;;
16272;SDS011;8244;50.044;9.006;2022-12-18T17:43:07;46.13;;;22.43;;
16272;SDS011;8244;50.044;9.006;2022-12-18T17:48:10;45.67;;;21.83;;
16272;SDS011;8244;50.044;9.006;2022-12-18T17:53:12;55.77;;;25.37;;
16272;SDS011;8244;50.044;9.006;2022-12-18T17:58:15;58.23;;;25.83;;
16272;SDS011;8244;50.044;9.006;2022-12-18T18:03:16;54.10;;;25.07;;
16272;SDS011;8244;50.044;9.006;2022-12-18T18:08:18;47.93;;;23.23;;
16272;SDS011;8244;50.044;9.006;2022-12-18T18:13:22;46.67;;;22.57;;
16272;SDS011;8244;50.044;9.006;2022-12-18T18:18:58;49.43;;;21.47;;
16272;SDS011;8244;50.044;9.006;2022-12-18T18:24:00;47.03;;;21.60;;
16272;SDS011;8244;50.044;9.006;2022-12-18T18:29:05;46.97;;;22.73;;
16272;SDS011;8244;50.044;9.006;2022-12-18T18:34:13;43.97;;;20.57;;
16272;SDS011;8244;50.044;9.006;2022-12-18T18:39:15;49.90;;;22.37;;
16272;SDS011;8244;50.044;9.006;2022-12-18T18:44:19;47.43;;;20.77;;
16272;SDS011;8244;50.044;9.006;2022-12-18T18:49:21;45.27;;;20.90;;
16272;SDS011;8244;50.044;9.006;2022-12-18T18:54:26;47.37;;;21.77;;
16272;SDS011;8244;50.044;9.006;2022-12-18T18:59:29;46.17;;;21.30;;
16272;SDS011;8244;50.044;9.006;2022-12-18T19:04:31;46.60;;;21.93;;
16272;SDS011;8244;50.044;9.006;2022-12-18T19:09:33;47.90;;;22.83;;
16272;SDS011;8244;50.044;9.006;2022-12-18T19:14:37;47.60;;;22.90;;
16272;SDS011;8244;50.044;9.006;2022-12-18T19:19:39;44.83;;;22.17;;
16272;SDS011;8244;50.044;9.006;2022-12-18T19:24:41;81.57;;;34.60;;
16272;SDS011;8244;50.044;9.006;2022-12-18T19:29:44;52.97;;;24.67;;
16272;SDS011;8244;50.044;9.006;2022-12-18T19:34:45;42.37;;;20.30;;
16272;SDS011;8244;50.044;9.006;2022-12-18T19:39:47;43.93;;;20.53;;
16272;SDS011;8244;50.044;9.006;2022-12-18T19:44:50;46.23;;;21.80;;
16272;SDS011;8244;50.044;9.006;2022-12-18T19:49:52;47.63;;;22.43;;
16272;SDS011;8244;50.044;9.006;2022-12-18T19:54:56;42.77;;;20.87;;
16272;SDS011;8244;50.044;9.006;2022-12-18T19:59:59;52.33;;;22.07;;
16272;SDS011;8244;50.044;9.006;2022-12-18T20:05:03;42.40;;;21.03;;
16272;SDS011;8244;50.044;9.006;2022-12-18T20:10:07;41.00;;;19.70;;
16272;SDS011;8244;50.044;9.006;2022-12-18T20:15:14;40.63;;;19.00;;
16272;SDS011;8244;50.044;9.006;2022-12-18T20:20:16;43.13;;;19.53;;
16272;SDS011;8244;50.044;9.006;2022-12-18T20:25:18;43.13;;;19.43;;
16272;SDS011;8244;50.044;9.006;2022-12-18T20:30:21;41.20;;;19.43;;
16272;SDS011;8244;50.044;9.006;2022-12-18T20:35:22;39.83;;;19.00;;
16272;SDS011;8244;50.044;9.006;2022-12-18T20:40:27;42.47;;;21.33;;
16272;SDS011;8244;50.044;9.006;2022-12-18T20:45:30;48.10;;;21.33;;
16272;SDS011;8244;50.044;9.006;2022-12-18T20:50:32;42.43;;;21.10;;
16272;SDS011;8244;50.044;9.006;2022-12-18T20:55:34;52.47;;;24.47;;
16272;SDS011;8244;50.044;9.006;2022-12-18T21:00:42;44.23;;;20.67;;
16272;SDS011;8244;50.044;9.006;2022-12-18T21:05:43;41.07;;;19.83;;
16272;SDS011;8244;50.044;9.006;2022-12-18T21:10:45;45.30;;;21.67;;
16272;SDS011;8244;50.044;9.006;2022-12-18T21:15:48;42.90;;;19.73;;
16272;SDS011;8244;50.044;9.006;2022-12-18T21:20:52;39.73;;;19.63;;
16272;SDS011;8244;50.044;9.006;2022-12-18T21:25:56;45.43;;;20.17;;
16272;SDS011;8244;50.044;9.006;2022-12-18T21:31:16;42.63;;;20.77;;
16272;SDS011;8244;50.044;9.006;2022-12-18T21:36:19;44.53;;;20.93;;
16272;SDS011;8244;50.044;9.006;2022-12-18T21:41:20;45.30;;;21.27;;
16272;SDS011;8244;50.044;9.006;2022-12-18T21:46:38;47.27;;;20.80;;
16272;SDS011;8244;50.044;9.006;2022-12-18T21:51:42;41.77;;;20.47;;
16272;SDS011;8244;50.044;9.006;2022-12-18T21:56:45;45.53;;;20.00;;
16272;SDS011;8244;50.044;9.006;2022-12-18T22:01:50;42.20;;;20.60;;
16272;SDS011;8244;50.044;9.006;2022-12-18T22:06:52;43.60;;;20.37;;
16272;SDS011;8244;50.044;9.006;2022-12-18T22:11:56;41.50;;;19.93;;
16272;SDS011;8244;50.044;9.006;2022-12-18T22:16:59;41.60;;;20.73;;
16272;SDS011;8244;50.044;9.006;2022-12-18T22:22:01;40.20;;;20.30;;
16272;SDS011;8244;50.044;9.006;2022-12-18T22:27:02;42.57;;;20.53;;
16272;SDS011;8244;50.044;9.006;2022-12-18T22:32:06;44.57;;;21.73;;
16272;SDS011;8244;50.044;9.006;2022-12-18T22:37:09;40.77;;;20.23;;
16272;SDS011;8244;50.044;9.006;2022-12-18T22:42:11;42.00;;;20.07;;
16272;SDS011;8244;50.044;9.006;2022-12-18T22:47:14;45.10;;;20.83;;
16272;SDS011;8244;50.044;9.006;2022-12-18T22:52:16;41.17;;;20.43;;
16272;SDS011;8244;50.044;9.006;2022-12-18T22:57:18;46.87;;;21.73;;
16272;SDS011;8244;50.044;9.006;2022-12-18T23:02:21;42.07;;;21.10;;
16272;SDS011;8244;50.044;9.006;2022-12-18T23:07:23;42.33;;;21.03;;
16272;SDS011;8244;50.044;9.006;2022-12-18T23:12:25;43.73;;;20.97;;
16272;SDS011;8244;50.044;9.006;2022-12-18T23:17:28;41.03;;;20.83;;
16272;SDS011;8244;50.044;9.006;2022-12-18T23:22:30;41.67;;;19.87;;
16272;SDS011;8244;50.044;9.006;2022-12-18T23:27:31;42.43;;;20.10;;
16272;SDS011;8244;50.044;9.006;2022-12-18T23:32:35;42.43;;;20.67;;
16272;SDS011;8244;50.044;9.006;2022-12-18T23:37:37;43.43;;;21.00;;
16272;SDS011;8244;50.044;9.006;2022-12-18T23:42:38;42.97;;;21.10;;
16272;SDS011;8244;50.044;9.006;2022-12-18T23:47:41;41.13;;;20.67;;
16272;SDS011;8244;50.044;9.006;2022-12-18T23:52:43;45.23;;;22.57;;
16272;SDS011;8244;50.044;9.006;2022-12-18T23:57:44;54.23;;;22.03;;
